createdAt,value
2019-02-24T00:02:12.581Z,96304.95
2019-02-24T00:04:41.944Z,96306.70
2019-02-24T00:07:11.259Z,96312.98
2019-02-24T00:09:40.618Z,96311.44
2019-02-24T00:12:09.996Z,96308.46
2019-02-24T00:14:39.355Z,96310.20
2019-02-24T00:17:08.692Z,96309.38
2019-02-24T00:19:38.071Z,96310.64
2019-02-24T00:22:07.408Z,96314.11
2019-02-24T00:24:36.739Z,96316.58
2019-02-24T00:27:06.121Z,96313.80
2019-02-24T00:29:35.497Z,96318.41
2019-02-24T00:32:04.848Z,96314.20
2019-02-24T00:34:34.212Z,96317.08
2019-02-24T00:37:03.563Z,96310.80
2019-02-24T00:39:32.916Z,96315.84
2019-02-24T00:42:02.260Z,96324.16
2019-02-24T00:44:31.607Z,96319.02
2019-02-24T00:47:00.967Z,96313.09
2019-02-24T00:49:30.290Z,96316.47
2019-02-24T00:51:59.673Z,96316.52
2019-02-24T00:54:29.015Z,96319.90
2019-02-24T00:56:58.333Z,96308.88
2019-02-24T00:59:27.684Z,96316.96
2019-02-24T01:01:57.036Z,96315.50
2019-02-24T01:04:26.406Z,96317.34
2019-02-24T01:06:55.784Z,96323.28
2019-02-24T01:09:25.142Z,96318.58
2019-02-24T01:11:54.510Z,96316.08
2019-02-24T01:14:23.911Z,96315.70
2019-02-24T01:16:53.353Z,96309.41
2019-02-24T01:19:22.726Z,96315.70
2019-02-24T01:21:52.111Z,96314.44
2019-02-24T01:24:21.497Z,96310.64
2019-02-24T01:26:50.842Z,96312.34
2019-02-24T01:29:20.228Z,96315.26
2019-02-24T01:31:49.624Z,96310.59
2019-02-24T01:34:18.961Z,96310.14
2019-02-24T01:36:48.370Z,96301.33
2019-02-24T01:39:17.728Z,96308.06
2019-02-24T01:41:47.091Z,96304.71
2019-02-24T01:44:16.446Z,96305.47
2019-02-24T01:46:45.825Z,96309.73
2019-02-24T01:49:15.165Z,96312.27
2019-02-24T01:51:44.510Z,96310.64
2019-02-24T01:54:13.852Z,96310.61
2019-02-24T01:56:43.206Z,96308.88
2019-02-24T01:59:12.545Z,96305.53
2019-02-24T02:01:41.939Z,96308.91
2019-02-24T02:04:11.296Z,96299.22
2019-02-24T02:06:40.659Z,96300.53
2019-02-24T02:09:10.063Z,96300.67
2019-02-24T02:11:39.432Z,96298.13
2019-02-24T02:14:08.787Z,96291.39
2019-02-24T02:16:38.284Z,96285.48
2019-02-24T02:19:07.678Z,96285.96
2019-02-24T02:21:37.043Z,96280.80
2019-02-24T02:24:06.401Z,96279.09
2019-02-24T02:26:35.814Z,96275.44
2019-02-24T02:29:05.150Z,96270.83
2019-02-24T02:31:34.501Z,96267.54
2019-02-24T02:34:03.869Z,96268.45
2019-02-24T02:36:33.282Z,96278.17
2019-02-24T02:39:02.591Z,96276.88
2019-02-24T02:41:32.049Z,96270.12
2019-02-24T02:44:01.399Z,96272.42
2019-02-24T02:46:30.768Z,96273.20
2019-02-24T02:49:00.176Z,96272.45
2019-02-24T02:51:29.542Z,96275.39
2019-02-24T02:53:58.908Z,96273.58
2019-02-24T02:56:28.277Z,96281.16
2019-02-24T02:58:57.633Z,96279.89
2019-02-24T03:01:26.969Z,96287.39
2019-02-24T03:03:56.363Z,96285.66
2019-02-24T03:06:31.601Z,96282.75
2019-02-24T03:09:00.978Z,96281.52
2019-02-24T03:11:30.450Z,96277.75
2019-02-24T03:13:59.802Z,96278.20
2019-02-24T03:16:29.576Z,96275.20
2019-02-24T03:18:58.954Z,96281.11
2019-02-24T03:21:28.291Z,96280.22
2019-02-24T03:23:57.661Z,96281.87
2019-02-24T03:26:26.997Z,96278.55
2019-02-24T03:29:03.890Z,96283.19
2019-02-24T03:31:27.468Z,96287.75
2019-02-24T03:33:56.794Z,96289.01
2019-02-24T03:36:26.178Z,96287.69
2019-02-24T03:38:55.521Z,96285.33
2019-02-24T03:41:24.842Z,96289.15
2019-02-24T03:43:54.167Z,96281.98
2019-02-24T03:46:23.519Z,96281.98
2019-02-24T03:48:52.861Z,96280.72
2019-02-24T03:51:22.194Z,96282.06
2019-02-24T03:53:51.561Z,96278.36
2019-02-24T03:56:20.897Z,96277.02
2019-02-24T03:58:50.266Z,96276.63
2019-02-24T04:01:19.622Z,96270.73
2019-02-24T04:03:49.019Z,96272.45
2019-02-24T04:06:18.373Z,96270.70
2019-02-24T04:08:47.706Z,96271.47
2019-02-24T04:11:17.086Z,96274.43
2019-02-24T04:13:46.537Z,96271.55
2019-02-24T04:16:15.882Z,96274.41
2019-02-24T04:18:45.232Z,96273.64
2019-02-24T04:21:14.578Z,96269.80
2019-02-24T04:23:43.935Z,96269.82
2019-02-24T04:26:13.298Z,96264.30
2019-02-24T04:28:42.648Z,96259.36
2019-02-24T04:31:12.007Z,96263.12
2019-02-24T04:33:41.331Z,96258.78
2019-02-24T04:36:10.686Z,96263.53
2019-02-24T04:38:40.011Z,96270.64
2019-02-24T04:41:09.425Z,96270.62
2019-02-24T04:43:38.767Z,96260.90
2019-02-24T04:46:08.129Z,96258.02
2019-02-24T04:48:37.547Z,96248.84
2019-02-24T04:51:06.830Z,96255.69
2019-02-24T04:53:36.176Z,96245.06
2019-02-24T04:56:05.515Z,96243.72
2019-02-24T04:58:34.863Z,96244.09
2019-02-24T05:01:04.220Z,96243.63
2019-02-24T05:03:33.613Z,96251.30
2019-02-24T05:06:02.938Z,96253.65
2019-02-24T05:08:32.287Z,96255.66
2019-02-24T05:11:01.628Z,96256.97
2019-02-24T05:13:30.985Z,96263.70
2019-02-24T05:16:00.340Z,96270.83
2019-02-24T05:18:29.712Z,96276.63
2019-02-24T05:20:59.035Z,96284.23
2019-02-24T05:23:28.389Z,96285.00
2019-02-24T05:25:57.741Z,96290.48
2019-02-24T05:28:27.083Z,96294.33
2019-02-24T05:30:56.535Z,96295.34
2019-02-24T05:33:25.951Z,96295.14
2019-02-24T05:35:55.312Z,96297.73
2019-02-24T05:38:24.708Z,96302.07
2019-02-24T05:40:54.052Z,96310.58
2019-02-24T05:43:23.393Z,96309.03
2019-02-24T05:45:52.755Z,96307.40
2019-02-24T05:48:22.145Z,96304.91
2019-02-24T05:50:51.470Z,96308.04
2019-02-24T05:53:20.907Z,96308.70
2019-02-24T05:55:50.249Z,96311.22
2019-02-24T05:58:20.215Z,96316.28
2019-02-24T06:00:49.555Z,96319.52
2019-02-24T06:03:18.930Z,96314.41
2019-02-24T06:05:48.273Z,96314.41
2019-02-24T06:08:17.617Z,96308.35
2019-02-24T06:10:46.998Z,96316.23
2019-02-24T06:13:16.391Z,96319.03
2019-02-24T06:15:45.810Z,96319.80
2019-02-24T06:18:15.176Z,96324.76
2019-02-24T06:20:44.505Z,96330.53
2019-02-24T06:23:13.892Z,96335.41
2019-02-24T06:25:43.275Z,96333.22
2019-02-24T06:28:12.632Z,96336.02
2019-02-24T06:30:41.996Z,96339.98
2019-02-24T06:33:11.381Z,96333.54
2019-02-24T06:35:40.715Z,96335.66
2019-02-24T06:38:10.103Z,96340.51
2019-02-24T06:40:39.504Z,96336.91
2019-02-24T06:43:08.872Z,96334.80
2019-02-24T06:45:38.231Z,96336.79
2019-02-24T06:48:07.776Z,96338.68
2019-02-24T06:50:54.932Z,96341.66
2019-02-24T06:53:24.317Z,96341.02
2019-02-24T06:55:53.689Z,96343.03
2019-02-24T06:58:23.091Z,96340.16
2019-02-24T07:00:52.510Z,96344.58
2019-02-24T07:03:21.846Z,96347.55
2019-02-24T07:05:51.280Z,96349.80
2019-02-24T07:08:20.658Z,96352.56
2019-02-24T07:10:50.001Z,96354.42
2019-02-24T07:13:19.335Z,96357.59
2019-02-24T07:15:48.723Z,96358.97
2019-02-24T07:18:18.085Z,96366.08
2019-02-24T07:20:47.491Z,96355.77
2019-02-24T07:23:16.861Z,96351.02
2019-02-24T07:25:46.243Z,96354.95
2019-02-24T07:28:15.719Z,96349.13
2019-02-24T07:30:45.069Z,96348.16
2019-02-24T07:33:14.442Z,96350.37
2019-02-24T07:35:43.883Z,96350.94
2019-02-24T07:38:13.332Z,96355.92
2019-02-24T07:40:42.702Z,96344.80
2019-02-24T07:43:12.050Z,96356.29
2019-02-24T07:45:41.436Z,96358.37
2019-02-24T07:48:10.895Z,96352.64
2019-02-24T07:50:40.434Z,96355.81
2019-02-24T07:53:09.832Z,96348.74
2019-02-24T07:55:39.343Z,96348.02
2019-02-24T07:58:08.920Z,96345.08
2019-02-24T08:00:38.290Z,96361.16
2019-02-24T08:03:07.675Z,96356.44
2019-02-24T08:05:37.033Z,96353.86
2019-02-24T08:08:06.436Z,96354.37
2019-02-24T08:10:35.771Z,96355.58
2019-02-24T08:13:05.244Z,96350.37
2019-02-24T08:15:34.744Z,96348.52
2019-02-24T08:18:04.132Z,96352.55
2019-02-24T08:20:33.548Z,96350.33
2019-02-24T08:23:02.924Z,96344.48
2019-02-24T08:25:32.302Z,96349.91
2019-02-24T08:28:02.635Z,96350.53
2019-02-24T08:30:41.010Z,96349.09
2019-02-24T08:33:03.141Z,96350.28
2019-02-24T08:35:32.489Z,96348.55
2019-02-24T08:38:02.917Z,96345.39
2019-02-24T08:40:32.340Z,96347.87
2019-02-24T08:43:02.075Z,96340.86
2019-02-24T08:45:31.429Z,96345.23
2019-02-24T08:48:00.814Z,96340.31
2019-02-24T08:50:30.262Z,96335.68
2019-02-24T08:52:59.600Z,96337.92
2019-02-24T08:55:29.037Z,96332.41
2019-02-24T08:57:58.425Z,96337.41
2019-02-24T09:00:27.884Z,96331.44
2019-02-24T09:02:57.260Z,96331.76
2019-02-24T09:05:26.686Z,96330.81
2019-02-24T09:07:56.076Z,96332.08
2019-02-24T09:10:25.427Z,96323.40
2019-02-24T09:12:54.741Z,96324.85
2019-02-24T09:15:24.099Z,96324.88
2019-02-24T09:17:53.514Z,96322.11
2019-02-24T09:20:22.847Z,96324.80
2019-02-24T09:22:52.317Z,96323.48
2019-02-24T09:25:21.694Z,96321.13
2019-02-24T09:27:51.035Z,96318.29
2019-02-24T09:30:20.475Z,96312.39
2019-02-24T09:32:49.853Z,96314.67
2019-02-24T09:35:19.157Z,96313.64
2019-02-24T09:37:48.523Z,96311.39
2019-02-24T09:40:17.869Z,96306.80
2019-02-24T09:42:47.223Z,96303.38
2019-02-24T09:45:16.602Z,96308.95
2019-02-24T09:47:47.073Z,96307.09
2019-02-24T09:50:16.676Z,96309.49
2019-02-24T09:52:46.093Z,96300.38
2019-02-24T09:55:15.461Z,96300.27
2019-02-24T09:57:44.916Z,96299.17
2019-02-24T10:00:14.457Z,96290.73
2019-02-24T10:02:43.819Z,96285.53
2019-02-24T10:05:13.479Z,96284.13
2019-02-24T10:07:42.819Z,96282.27
2019-02-24T10:10:12.253Z,96278.55
2019-02-24T10:12:41.623Z,96265.74
2019-02-24T10:15:11.233Z,96263.94
2019-02-24T10:17:40.571Z,96258.56
2019-02-24T10:20:10.019Z,96248.59
2019-02-24T10:22:39.393Z,96244.86
2019-02-24T10:25:09.177Z,96241.33
2019-02-24T10:27:38.790Z,96236.35
2019-02-24T10:30:09.021Z,96237.67
2019-02-24T10:32:38.394Z,96231.23
2019-02-24T10:35:08.040Z,96232.28
2019-02-24T10:37:37.409Z,96230.98
2019-02-24T10:40:08.704Z,96220.77
2019-02-24T10:42:38.075Z,96225.78
2019-02-24T10:45:09.570Z,96223.07
2019-02-24T10:47:40.213Z,96216.36
2019-02-24T10:50:11.859Z,96217.62
2019-02-24T10:52:41.326Z,96222.20
2019-02-24T10:55:10.951Z,96216.75
2019-02-24T10:57:40.372Z,96220.67
2019-02-24T11:00:11.982Z,96215.72
2019-02-24T11:02:41.351Z,96197.81
2019-02-24T11:05:11.473Z,96217.68
2019-02-24T11:07:40.909Z,96211.78
2019-02-24T11:10:10.437Z,96211.13
2019-02-24T11:12:39.782Z,96205.19
2019-02-24T11:15:09.370Z,96209.05
2019-02-24T11:17:38.791Z,96197.83
2019-02-24T11:20:08.909Z,96188.80
2019-02-24T11:22:38.283Z,96182.50
2019-02-24T11:25:08.313Z,96179.92
2019-02-24T11:27:37.756Z,96179.85
2019-02-24T11:30:07.945Z,96181.81
2019-02-24T11:32:37.383Z,96178.64
2019-02-24T11:35:06.954Z,96176.55
2019-02-24T11:37:36.405Z,96171.55
2019-02-24T11:40:06.890Z,96168.06
2019-02-24T11:42:36.450Z,96164.92
2019-02-24T11:45:06.230Z,96156.22
2019-02-24T11:47:35.811Z,96154.64
2019-02-24T11:50:05.289Z,96150.89
2019-02-24T11:52:34.797Z,96151.56
2019-02-24T11:55:04.249Z,96154.35
2019-02-24T11:57:33.625Z,96147.88
2019-02-24T12:00:03.079Z,96144.66
2019-02-24T12:02:34.696Z,96145.02
2019-02-24T12:05:03.715Z,96144.11
2019-02-24T12:07:33.086Z,96136.81
2019-02-24T12:10:02.534Z,96131.40
2019-02-24T12:12:31.975Z,96132.59
2019-02-24T12:15:01.305Z,96137.45
2019-02-24T12:17:33.010Z,96130.41
2019-02-24T12:20:02.404Z,96129.69
2019-02-24T12:22:31.785Z,96129.91
2019-02-24T12:25:01.273Z,96120.35
2019-02-24T12:27:30.677Z,96117.61
2019-02-24T12:30:00.104Z,96127.82
2019-02-24T12:32:29.500Z,96127.48
2019-02-24T12:34:58.867Z,96124.62
2019-02-24T12:37:28.585Z,96119.09
2019-02-24T12:39:57.997Z,96122.83
2019-02-24T12:42:27.391Z,96122.59
2019-02-24T12:44:56.742Z,96126.20
2019-02-24T12:47:26.084Z,96126.56
2019-02-24T12:50:02.955Z,96122.25
2019-02-24T12:52:26.559Z,96122.84
2019-02-24T12:54:56.670Z,96120.09
2019-02-24T12:57:26.010Z,96119.18
2019-02-24T12:59:55.448Z,96120.30
2019-02-24T13:02:24.821Z,96116.84
2019-02-24T13:04:54.257Z,96114.16
2019-02-24T13:07:23.684Z,96117.36
2019-02-24T13:09:53.066Z,96112.88
2019-02-24T13:12:22.659Z,96122.58
2019-02-24T13:14:52.096Z,96123.07
2019-02-24T13:17:21.486Z,96116.36
2019-02-24T13:19:50.912Z,96119.84
2019-02-24T13:22:20.291Z,96122.78
2019-02-24T13:24:49.994Z,96120.61
2019-02-24T13:27:19.351Z,96119.61
2019-02-24T13:29:48.771Z,96112.91
2019-02-24T13:32:18.169Z,96110.79
2019-02-24T13:34:47.571Z,96111.41
2019-02-24T13:37:16.935Z,96118.62
2019-02-24T13:39:46.301Z,96117.20
2019-02-24T13:42:15.984Z,96119.13
2019-02-24T13:44:45.340Z,96120.28
2019-02-24T13:47:14.696Z,96115.31
2019-02-24T13:49:44.053Z,96116.59
2019-02-24T13:52:13.439Z,96117.91
2019-02-24T13:54:42.897Z,96112.30
2019-02-24T13:57:12.272Z,96105.47
2019-02-24T13:59:41.712Z,96105.78
2019-02-24T14:02:11.055Z,96116.83
2019-02-24T14:04:40.447Z,96114.78
2019-02-24T14:07:09.858Z,96117.77
2019-02-24T14:09:39.324Z,96115.32
2019-02-24T14:12:08.677Z,96111.52
2019-02-24T14:14:38.061Z,96112.22
2019-02-24T14:17:07.418Z,96112.42
2019-02-24T14:19:36.841Z,96114.23
2019-02-24T14:22:06.232Z,96114.89
2019-02-24T14:24:35.596Z,96106.52
2019-02-24T14:27:04.962Z,96114.61
2019-02-24T14:29:34.336Z,96111.50
2019-02-24T14:32:03.842Z,96111.06
2019-02-24T14:34:33.239Z,96121.28
2019-02-24T14:37:02.651Z,96124.08
2019-02-24T14:39:32.002Z,96121.42
2019-02-24T14:42:01.394Z,96128.16
2019-02-24T14:44:30.766Z,96116.75
2019-02-24T14:47:00.391Z,96117.70
2019-02-24T14:49:29.682Z,96110.30
2019-02-24T14:51:59.089Z,96118.80
2019-02-24T14:54:28.449Z,96116.11
2019-02-24T14:56:57.798Z,96106.78
2019-02-24T14:59:28.531Z,96109.81
2019-02-24T15:01:57.939Z,96107.61
2019-02-24T15:04:27.315Z,96118.49
2019-02-24T15:06:56.690Z,96109.60
2019-02-24T15:09:26.083Z,96108.53
2019-02-24T15:11:55.455Z,96105.36
2019-02-24T15:14:24.828Z,96108.09
2019-02-24T15:16:54.272Z,96112.80
2019-02-24T15:19:23.646Z,96113.42
2019-02-24T15:21:53.042Z,96099.56
2019-02-24T15:24:22.395Z,96111.27
2019-02-24T15:26:51.732Z,96101.20
2019-02-24T15:29:21.103Z,96115.33
2019-02-24T15:31:50.506Z,96107.58
2019-02-24T15:34:19.857Z,96113.17
2019-02-24T15:36:49.290Z,96110.98
2019-02-24T15:39:18.669Z,96111.98
2019-02-24T15:41:48.026Z,96109.50
2019-02-24T15:44:17.399Z,96110.72
2019-02-24T15:46:46.787Z,96108.00
2019-02-24T15:49:16.168Z,96109.51
2019-02-24T15:51:47.378Z,96115.16
2019-02-24T15:54:16.723Z,96109.80
2019-02-24T15:56:46.134Z,96113.27
2019-02-24T15:59:15.684Z,96120.86
2019-02-24T16:01:45.060Z,96116.44
2019-02-24T16:04:14.503Z,96116.09
2019-02-24T16:06:44.051Z,96117.16
2019-02-24T16:09:13.379Z,96122.73
2019-02-24T16:11:42.821Z,96121.61
2019-02-24T16:14:12.188Z,96118.34
2019-02-24T16:16:41.568Z,96119.59
2019-02-24T16:19:10.946Z,96126.83
2019-02-24T16:21:40.304Z,96129.69
2019-02-24T16:24:09.665Z,96126.56
2019-02-24T16:26:39.043Z,96127.55
2019-02-24T16:29:08.458Z,96133.52
2019-02-24T16:31:37.901Z,96137.21
2019-02-24T16:34:07.323Z,96138.17
2019-02-24T16:36:36.769Z,96142.39
2019-02-24T16:39:06.127Z,96139.45
2019-02-24T16:41:35.590Z,96137.48
2019-02-24T16:44:04.984Z,96143.31
2019-02-24T16:46:34.404Z,96150.41
2019-02-24T16:49:03.768Z,96149.95
2019-02-24T16:51:33.132Z,96150.55
2019-02-24T16:54:02.540Z,96154.95
2019-02-24T16:56:31.906Z,96153.20
2019-02-24T16:59:01.273Z,96155.34
2019-02-24T17:01:30.708Z,96155.80
2019-02-24T17:04:00.062Z,96163.08
2019-02-24T17:06:29.410Z,96160.45
2019-02-24T17:09:01.458Z,96160.03
2019-02-24T17:11:29.956Z,96155.98
2019-02-24T17:13:59.416Z,96157.09
2019-02-24T17:16:28.878Z,96159.42
2019-02-24T17:18:59.327Z,96160.22
2019-02-24T17:21:28.669Z,96153.36
2019-02-24T17:23:58.091Z,96154.16
2019-02-24T17:26:27.489Z,96152.70
2019-02-24T17:28:56.878Z,96152.00
2019-02-24T17:31:28.584Z,96152.36
2019-02-24T17:33:57.488Z,96146.98
2019-02-24T17:36:26.871Z,96148.05
2019-02-24T17:38:56.245Z,96148.26
2019-02-24T17:41:25.699Z,96146.23
2019-02-24T17:43:55.060Z,96151.03
2019-02-24T17:46:24.435Z,96148.68
2019-02-24T17:48:53.812Z,96149.95
2019-02-24T17:51:23.314Z,96151.75
2019-02-24T17:53:52.709Z,96150.72
2019-02-24T17:56:22.188Z,96161.06
2019-02-24T17:58:51.757Z,96157.94
2019-02-24T18:01:21.346Z,96157.94
2019-02-24T18:03:50.798Z,96154.70
2019-02-24T18:06:20.447Z,96161.13
2019-02-24T18:08:54.206Z,96161.63
2019-02-24T18:11:20.986Z,96166.37
2019-02-24T18:13:50.348Z,96170.30
2019-02-24T18:16:20.000Z,96174.95
2019-02-24T18:18:49.400Z,96175.86
2019-02-24T18:21:19.666Z,96177.03
2019-02-24T18:23:49.676Z,96178.81
2019-02-24T18:26:19.065Z,96179.23
2019-02-24T18:28:48.498Z,96170.00
2019-02-24T18:31:17.928Z,96170.13
2019-02-24T18:33:48.582Z,96174.91
2019-02-24T18:36:18.064Z,96172.20
2019-02-24T18:38:47.501Z,96170.70
2019-02-24T18:41:19.109Z,96172.82
2019-02-24T18:43:49.005Z,96164.92
2019-02-24T18:46:18.386Z,96171.68
2019-02-24T18:48:47.889Z,96170.30
2019-02-24T18:51:17.262Z,96174.33
2019-02-24T18:53:46.722Z,96176.45
2019-02-24T18:56:16.229Z,96180.73
2019-02-24T18:58:45.594Z,96183.97
2019-02-24T19:01:14.976Z,96183.09
2019-02-24T19:03:44.334Z,96181.66
2019-02-24T19:06:13.690Z,96181.60
2019-02-24T19:08:43.040Z,96185.69
2019-02-24T19:11:12.683Z,96179.48
2019-02-24T19:13:42.064Z,96182.20
2019-02-24T19:16:11.456Z,96186.68
2019-02-24T19:18:40.899Z,96185.60
2019-02-24T19:21:10.379Z,96184.55
2019-02-24T19:23:39.800Z,96195.30
2019-02-24T19:26:09.187Z,96186.98
2019-02-24T19:28:39.052Z,96186.68
2019-02-24T19:31:08.735Z,96189.02
2019-02-24T19:33:38.167Z,96188.48
2019-02-24T19:36:07.568Z,96191.19
2019-02-24T19:38:36.969Z,96191.71
2019-02-24T19:41:06.744Z,96196.39
2019-02-24T19:43:38.383Z,96198.23
2019-02-24T19:46:07.752Z,96195.69
2019-02-24T19:48:42.082Z,96188.56
2019-02-24T19:51:08.213Z,96189.61
2019-02-24T19:53:37.579Z,96184.26
2019-02-24T19:56:07.169Z,96181.13
2019-02-24T19:58:36.522Z,96180.78
2019-02-24T20:01:05.907Z,96175.08
2019-02-24T20:03:35.284Z,96172.24
2019-02-24T20:06:05.687Z,96170.97
2019-02-24T20:08:35.113Z,96170.00
2019-02-24T20:11:04.980Z,96164.75
2019-02-24T20:13:34.357Z,96163.67
2019-02-24T20:16:03.737Z,96166.14
2019-02-24T20:18:33.139Z,96168.91
2019-02-24T20:21:04.599Z,96169.30
2019-02-24T20:23:33.996Z,96159.78
2019-02-24T20:26:03.722Z,96167.86
2019-02-24T20:28:33.189Z,96172.58
2019-02-24T20:31:02.589Z,96172.87
2019-02-24T20:33:31.994Z,96169.74
2019-02-24T20:36:01.388Z,96168.78
2019-02-24T20:38:30.792Z,96172.81
2019-02-24T20:41:00.358Z,96177.33
2019-02-24T20:43:29.747Z,96177.52
2019-02-24T20:45:59.102Z,96174.56
2019-02-24T20:48:28.435Z,96175.43
2019-02-24T20:50:57.794Z,96176.25
2019-02-24T20:53:27.199Z,96178.56
2019-02-24T20:55:56.636Z,96171.86
2019-02-24T20:58:26.024Z,96175.55
2019-02-24T21:00:55.466Z,96167.53
2019-02-24T21:03:24.878Z,96175.25
2019-02-24T21:05:54.336Z,96169.83
2019-02-24T21:08:23.653Z,96171.86
2019-02-24T21:10:53.080Z,96170.80
2019-02-24T21:13:22.470Z,96171.91
2019-02-24T21:15:51.847Z,96165.78
2019-02-24T21:18:21.245Z,96175.59
2019-02-24T21:20:50.600Z,96167.61
2019-02-24T21:23:19.999Z,96167.84
2019-02-24T21:25:49.360Z,96168.08
2019-02-24T21:28:18.779Z,96165.35
2019-02-24T21:30:48.203Z,96164.13
2019-02-24T21:33:17.573Z,96160.59
2019-02-24T21:35:46.918Z,96157.20
2019-02-24T21:38:16.273Z,96155.67
2019-02-24T21:40:45.629Z,96149.50
2019-02-24T21:43:14.980Z,96149.72
2019-02-24T21:45:44.400Z,96153.22
2019-02-24T21:48:13.750Z,96157.08
2019-02-24T21:50:43.140Z,96153.32
2019-02-24T21:53:12.684Z,96152.31
2019-02-24T21:55:42.094Z,96159.41
2019-02-24T21:58:11.535Z,96162.11
2019-02-24T22:00:41.116Z,96163.93
2019-02-24T22:03:10.527Z,96166.36
2019-02-24T22:05:39.934Z,96162.16
2019-02-24T22:08:09.342Z,96168.55
2019-02-24T22:10:38.744Z,96172.09
2019-02-24T22:13:08.125Z,96177.61
2019-02-24T22:15:37.540Z,96166.41
2019-02-24T22:18:06.999Z,96170.66
2019-02-24T22:20:36.395Z,96167.06
2019-02-24T22:23:05.811Z,96165.35
2019-02-24T22:25:36.188Z,96169.96
2019-02-24T22:28:05.970Z,96163.86
2019-02-24T22:30:36.312Z,96163.77
2019-02-24T22:33:05.775Z,96165.50
2019-02-24T22:35:35.140Z,96165.40
2019-02-24T22:38:04.533Z,96168.94
2019-02-24T22:40:33.872Z,96169.75
2019-02-24T22:43:03.228Z,96176.30
2019-02-24T22:45:32.610Z,96170.42
2019-02-24T22:48:03.139Z,96172.65
2019-02-24T22:50:32.634Z,96175.78
2019-02-24T22:53:01.987Z,96173.49
2019-02-24T22:55:31.319Z,96182.19
2019-02-24T22:58:00.695Z,96177.34
2019-02-24T23:01:04.230Z,96173.46
2019-02-24T23:03:36.411Z,96172.09
2019-02-24T23:06:06.432Z,96173.19
2019-02-24T23:08:35.810Z,96171.64
2019-02-24T23:11:05.187Z,96172.41
2019-02-24T23:13:34.580Z,96170.69
2019-02-24T23:16:03.941Z,96170.19
2019-02-24T23:18:33.313Z,96169.83
2019-02-24T23:21:02.736Z,96169.88
2019-02-24T23:23:32.076Z,96168.01
2019-02-24T23:26:01.499Z,96172.38
2019-02-24T23:28:32.614Z,96166.44
2019-02-24T23:31:01.991Z,96164.61
2019-02-24T23:33:31.360Z,96166.66
2019-02-24T23:36:00.717Z,96155.33
2019-02-24T23:38:30.079Z,96158.63
2019-02-24T23:40:59.532Z,96153.58
2019-02-24T23:43:30.669Z,96151.39
2019-02-24T23:46:00.156Z,96153.11
2019-02-24T23:48:29.539Z,96161.53
2019-02-24T23:50:58.908Z,96159.42
2019-02-24T23:53:28.288Z,96152.87
2019-02-24T23:55:57.714Z,96156.59
2019-02-24T23:58:27.103Z,96160.39
